sensor_id;sensor_type;location;lat;lon;timestamp;P1;durP1;ratioP1;P2;durP2;ratioP2
46487;SDS011;32202;48.780;9.204;2022-10-23T00:00:08;8.52;;;4.72;;
46487;SDS011;32202;48.780;9.204;2022-10-23T00:02:34;9.63;;;4.38;;
46487;SDS011;32202;48.780;9.204;2022-10-23T00:05:00;10.60;;;5.90;;
46487;SDS011;32202;48.780;9.204;2022-10-23T00:07:25;9.27;;;4.97;;
46487;SDS011;32202;48.780;9.204;2022-10-23T00:09:51;12.93;;;4.72;;
46487;SDS011;32202;48.780;9.204;2022-10-23T00:12:17;11.18;;;4.78;;
46487;SDS011;32202;48.780;9.204;2022-10-23T00:14:42;11.68;;;5.70;;
46487;SDS011;32202;48.780;9.204;2022-10-23T00:17:08;11.90;;;5.40;;
46487;SDS011;32202;48.780;9.204;2022-10-23T00:19:36;10.52;;;5.25;;
46487;SDS011;32202;48.780;9.204;2022-10-23T00:22:01;11.23;;;5.53;;
46487;SDS011;32202;48.780;9.204;2022-10-23T00:24:27;11.18;;;5.40;;
46487;SDS011;32202;48.780;9.204;2022-10-23T00:26:53;9.90;;;5.10;;
46487;SDS011;32202;48.780;9.204;2022-10-23T00:29:18;11.60;;;4.90;;
46487;SDS011;32202;48.780;9.204;2022-10-23T00:31:44;11.48;;;4.70;;
46487;SDS011;32202;48.780;9.204;2022-10-23T00:34:09;9.32;;;5.03;;
46487;SDS011;32202;48.780;9.204;2022-10-23T00:36:36;10.68;;;4.63;;
46487;SDS011;32202;48.780;9.204;2022-10-23T00:39:02;9.45;;;4.13;;
46487;SDS011;32202;48.780;9.204;2022-10-23T00:41:29;6.57;;;4.10;;
46487;SDS011;32202;48.780;9.204;2022-10-23T00:43:58;6.93;;;4.03;;
46487;SDS011;32202;48.780;9.204;2022-10-23T00:46:23;7.78;;;4.05;;
46487;SDS011;32202;48.780;9.204;2022-10-23T00:48:49;7.78;;;4.10;;
46487;SDS011;32202;48.780;9.204;2022-10-23T00:51:15;7.40;;;3.97;;
46487;SDS011;32202;48.780;9.204;2022-10-23T00:53:41;7.10;;;4.07;;
46487;SDS011;32202;48.780;9.204;2022-10-23T00:56:08;6.95;;;3.70;;
46487;SDS011;32202;48.780;9.204;2022-10-23T00:58:34;8.52;;;4.47;;
46487;SDS011;32202;48.780;9.204;2022-10-23T01:00:59;10.85;;;4.32;;
46487;SDS011;32202;48.780;9.204;2022-10-23T01:03:26;10.30;;;3.72;;
46487;SDS011;32202;48.780;9.204;2022-10-23T01:11:11;6.25;;;3.60;;
46487;SDS011;32202;48.780;9.204;2022-10-23T01:13:47;6.57;;;3.75;;
46487;SDS011;32202;48.780;9.204;2022-10-23T01:16:22;10.07;;;4.38;;
46487;SDS011;32202;48.780;9.204;2022-10-23T01:18:57;10.63;;;4.07;;
46487;SDS011;32202;48.780;9.204;2022-10-23T01:21:34;8.10;;;3.97;;
46487;SDS011;32202;48.780;9.204;2022-10-23T01:24:17;7.85;;;4.00;;
46487;SDS011;32202;48.780;9.204;2022-10-23T01:30:05;6.53;;;4.20;;
46487;SDS011;32202;48.780;9.204;2022-10-23T01:32:47;9.70;;;4.53;;
46487;SDS011;32202;48.780;9.204;2022-10-23T01:35:26;8.88;;;4.15;;
46487;SDS011;32202;48.780;9.204;2022-10-23T01:38:08;12.18;;;4.82;;
46487;SDS011;32202;48.780;9.204;2022-10-23T01:43:17;5.78;;;3.60;;
46487;SDS011;32202;48.780;9.204;2022-10-23T01:45:49;11.98;;;5.00;;
46487;SDS011;32202;48.780;9.204;2022-10-23T01:50:50;7.57;;;4.10;;
46487;SDS011;32202;48.780;9.204;2022-10-23T01:53:19;8.57;;;4.20;;
46487;SDS011;32202;48.780;9.204;2022-10-23T01:55:46;6.38;;;4.10;;
46487;SDS011;32202;48.780;9.204;2022-10-23T01:58:13;7.95;;;4.03;;
46487;SDS011;32202;48.780;9.204;2022-10-23T02:00:40;7.18;;;4.57;;
46487;SDS011;32202;48.780;9.204;2022-10-23T02:03:08;11.57;;;4.75;;
46487;SDS011;32202;48.780;9.204;2022-10-23T02:05:34;7.68;;;3.88;;
46487;SDS011;32202;48.780;9.204;2022-10-23T02:08:00;9.20;;;3.95;;
46487;SDS011;32202;48.780;9.204;2022-10-23T02:10:48;9.52;;;4.60;;
46487;SDS011;32202;48.780;9.204;2022-10-23T02:16:50;9.85;;;4.38;;
46487;SDS011;32202;48.780;9.204;2022-10-23T02:19:23;6.72;;;4.35;;
46487;SDS011;32202;48.780;9.204;2022-10-23T02:24:29;6.70;;;3.42;;
46487;SDS011;32202;48.780;9.204;2022-10-23T02:27:00;9.02;;;3.78;;
46487;SDS011;32202;48.780;9.204;2022-10-23T02:31:57;9.80;;;4.45;;
46487;SDS011;32202;48.780;9.204;2022-10-23T02:34:23;7.80;;;3.97;;
46487;SDS011;32202;48.780;9.204;2022-10-23T02:36:48;8.50;;;4.60;;
46487;SDS011;32202;48.780;9.204;2022-10-23T02:39:14;7.15;;;4.13;;
46487;SDS011;32202;48.780;9.204;2022-10-23T02:41:43;8.35;;;4.38;;
46487;SDS011;32202;48.780;9.204;2022-10-23T02:58:44;13.65;;;8.65;;
46487;SDS011;32202;48.780;9.204;2022-10-23T03:01:25;35.00;;;19.33;;
46487;SDS011;32202;48.780;9.204;2022-10-23T03:03:58;76.78;;;44.05;;
46487;SDS011;32202;48.780;9.204;2022-10-23T03:06:25;76.50;;;41.08;;
46487;SDS011;32202;48.780;9.204;2022-10-23T03:11:21;53.65;;;32.83;;
46487;SDS011;32202;48.780;9.204;2022-10-23T03:13:47;54.53;;;29.60;;
46487;SDS011;32202;48.780;9.204;2022-10-23T03:16:12;13.98;;;8.30;;
46487;SDS011;32202;48.780;9.204;2022-10-23T03:18:38;14.13;;;7.43;;
46487;SDS011;32202;48.780;9.204;2022-10-23T03:21:04;77.28;;;45.67;;
46487;SDS011;32202;48.780;9.204;2022-10-23T03:23:29;82.93;;;49.28;;
46487;SDS011;32202;48.780;9.204;2022-10-23T03:25:55;51.55;;;29.83;;
46487;SDS011;32202;48.780;9.204;2022-10-23T03:28:20;82.28;;;49.92;;
46487;SDS011;32202;48.780;9.204;2022-10-23T03:30:47;16.48;;;9.48;;
46487;SDS011;32202;48.780;9.204;2022-10-23T03:33:12;65.22;;;37.75;;
46487;SDS011;32202;48.780;9.204;2022-10-23T03:35:38;113.97;;;65.25;;
46487;SDS011;32202;48.780;9.204;2022-10-23T03:38:04;70.55;;;40.13;;
46487;SDS011;32202;48.780;9.204;2022-10-23T03:40:30;35.50;;;21.60;;
46487;SDS011;32202;48.780;9.204;2022-10-23T03:42:55;42.33;;;24.75;;
46487;SDS011;32202;48.780;9.204;2022-10-23T03:45:21;47.65;;;26.10;;
46487;SDS011;32202;48.780;9.204;2022-10-23T03:47:47;41.60;;;24.00;;
46487;SDS011;32202;48.780;9.204;2022-10-23T03:50:14;20.33;;;11.35;;
46487;SDS011;32202;48.780;9.204;2022-10-23T03:52:40;33.95;;;18.55;;
46487;SDS011;32202;48.780;9.204;2022-10-23T03:55:06;41.55;;;22.98;;
46487;SDS011;32202;48.780;9.204;2022-10-23T03:57:32;18.50;;;9.57;;
46487;SDS011;32202;48.780;9.204;2022-10-23T03:59:57;25.67;;;13.65;;
46487;SDS011;32202;48.780;9.204;2022-10-23T04:02:23;19.80;;;12.05;;
46487;SDS011;32202;48.780;9.204;2022-10-23T04:04:48;12.48;;;7.68;;
46487;SDS011;32202;48.780;9.204;2022-10-23T04:07:14;38.50;;;21.45;;
46487;SDS011;32202;48.780;9.204;2022-10-23T04:09:40;52.58;;;29.45;;
46487;SDS011;32202;48.780;9.204;2022-10-23T04:12:05;24.10;;;13.50;;
46487;SDS011;32202;48.780;9.204;2022-10-23T04:14:31;27.63;;;14.13;;
46487;SDS011;32202;48.780;9.204;2022-10-23T04:16:57;28.95;;;14.93;;
46487;SDS011;32202;48.780;9.204;2022-10-23T04:19:22;10.13;;;4.40;;
46487;SDS011;32202;48.780;9.204;2022-10-23T04:21:48;7.75;;;4.35;;
46487;SDS011;32202;48.780;9.204;2022-10-23T04:24:14;14.10;;;7.68;;
46487;SDS011;32202;48.780;9.204;2022-10-23T04:26:39;13.68;;;8.35;;
46487;SDS011;32202;48.780;9.204;2022-10-23T04:29:05;13.13;;;8.40;;
46487;SDS011;32202;48.780;9.204;2022-10-23T04:31:31;8.90;;;4.75;;
46487;SDS011;32202;48.780;9.204;2022-10-23T04:33:56;14.63;;;7.38;;
46487;SDS011;32202;48.780;9.204;2022-10-23T04:36:22;13.07;;;7.30;;
46487;SDS011;32202;48.780;9.204;2022-10-23T04:38:47;18.75;;;10.90;;
46487;SDS011;32202;48.780;9.204;2022-10-23T04:41:13;10.57;;;5.78;;
46487;SDS011;32202;48.780;9.204;2022-10-23T04:43:38;9.10;;;4.18;;
46487;SDS011;32202;48.780;9.204;2022-10-23T04:46:04;16.50;;;9.73;;
46487;SDS011;32202;48.780;9.204;2022-10-23T04:48:30;13.75;;;7.82;;
46487;SDS011;32202;48.780;9.204;2022-10-23T04:51:01;14.45;;;8.88;;
46487;SDS011;32202;48.780;9.204;2022-10-23T04:53:28;15.15;;;6.18;;
46487;SDS011;32202;48.780;9.204;2022-10-23T04:55:54;15.38;;;9.00;;
46487;SDS011;32202;48.780;9.204;2022-10-23T04:58:22;10.52;;;6.20;;
46487;SDS011;32202;48.780;9.204;2022-10-23T05:00:48;13.02;;;5.70;;
46487;SDS011;32202;48.780;9.204;2022-10-23T05:03:15;11.02;;;6.32;;
46487;SDS011;32202;48.780;9.204;2022-10-23T05:05:41;12.90;;;5.68;;
46487;SDS011;32202;48.780;9.204;2022-10-23T05:08:07;9.48;;;4.15;;
46487;SDS011;32202;48.780;9.204;2022-10-23T05:10:33;13.55;;;5.90;;
46487;SDS011;32202;48.780;9.204;2022-10-23T05:12:58;8.73;;;4.45;;
46487;SDS011;32202;48.780;9.204;2022-10-23T05:15:24;12.07;;;5.53;;
46487;SDS011;32202;48.780;9.204;2022-10-23T05:17:51;10.88;;;6.50;;
46487;SDS011;32202;48.780;9.204;2022-10-23T05:20:20;13.73;;;7.13;;
46487;SDS011;32202;48.780;9.204;2022-10-23T05:22:49;9.30;;;5.47;;
46487;SDS011;32202;48.780;9.204;2022-10-23T05:25:17;12.70;;;7.35;;
46487;SDS011;32202;48.780;9.204;2022-10-23T05:27:43;9.02;;;5.30;;
46487;SDS011;32202;48.780;9.204;2022-10-23T05:30:09;9.15;;;4.97;;
46487;SDS011;32202;48.780;9.204;2022-10-23T05:32:35;12.07;;;7.60;;
46487;SDS011;32202;48.780;9.204;2022-10-23T05:35:06;13.18;;;7.57;;
46487;SDS011;32202;48.780;9.204;2022-10-23T05:37:33;8.48;;;4.68;;
46487;SDS011;32202;48.780;9.204;2022-10-23T05:40:01;21.05;;;9.98;;
46487;SDS011;32202;48.780;9.204;2022-10-23T05:42:27;18.40;;;10.95;;
46487;SDS011;32202;48.780;9.204;2022-10-23T05:44:53;13.23;;;6.50;;
46487;SDS011;32202;48.780;9.204;2022-10-23T05:47:18;45.55;;;23.92;;
46487;SDS011;32202;48.780;9.204;2022-10-23T05:49:44;72.07;;;37.03;;
46487;SDS011;32202;48.780;9.204;2022-10-23T05:52:10;81.00;;;43.75;;
46487;SDS011;32202;48.780;9.204;2022-10-23T05:54:36;38.03;;;21.23;;
46487;SDS011;32202;48.780;9.204;2022-10-23T05:57:02;31.88;;;15.25;;
46487;SDS011;32202;48.780;9.204;2022-10-23T05:59:27;65.07;;;34.30;;
46487;SDS011;32202;48.780;9.204;2022-10-23T06:01:53;31.63;;;16.05;;
46487;SDS011;32202;48.780;9.204;2022-10-23T06:04:19;233.35;;;124.32;;
46487;SDS011;32202;48.780;9.204;2022-10-23T06:06:45;284.15;;;152.77;;
46487;SDS011;32202;48.780;9.204;2022-10-23T06:09:11;241.50;;;131.88;;
46487;SDS011;32202;48.780;9.204;2022-10-23T06:11:38;182.25;;;97.63;;
46487;SDS011;32202;48.780;9.204;2022-10-23T06:14:03;181.10;;;99.18;;
46487;SDS011;32202;48.780;9.204;2022-10-23T06:16:31;23.02;;;12.65;;
46487;SDS011;32202;48.780;9.204;2022-10-23T06:18:57;43.53;;;21.42;;
46487;SDS011;32202;48.780;9.204;2022-10-23T06:21:23;90.72;;;46.35;;
46487;SDS011;32202;48.780;9.204;2022-10-23T06:23:49;56.80;;;28.08;;
46487;SDS011;32202;48.780;9.204;2022-10-23T06:26:15;53.80;;;30.27;;
46487;SDS011;32202;48.780;9.204;2022-10-23T06:28:42;55.20;;;28.95;;
46487;SDS011;32202;48.780;9.204;2022-10-23T06:31:10;97.05;;;54.65;;
46487;SDS011;32202;48.780;9.204;2022-10-23T06:33:37;96.15;;;57.85;;
46487;SDS011;32202;48.780;9.204;2022-10-23T06:36:04;62.15;;;39.80;;
46487;SDS011;32202;48.780;9.204;2022-10-23T06:38:33;46.10;;;30.98;;
46487;SDS011;32202;48.780;9.204;2022-10-23T06:41:01;11.30;;;5.75;;
46487;SDS011;32202;48.780;9.204;2022-10-23T06:43:28;8.23;;;5.00;;
46487;SDS011;32202;48.780;9.204;2022-10-23T06:45:53;15.95;;;8.52;;
46487;SDS011;32202;48.780;9.204;2022-10-23T06:48:19;20.45;;;11.43;;
46487;SDS011;32202;48.780;9.204;2022-10-23T06:50:45;15.20;;;9.77;;
46487;SDS011;32202;48.780;9.204;2022-10-23T06:53:10;16.77;;;10.48;;
46487;SDS011;32202;48.780;9.204;2022-10-23T06:55:36;29.48;;;19.70;;
46487;SDS011;32202;48.780;9.204;2022-10-23T06:58:04;31.90;;;20.70;;
46487;SDS011;32202;48.780;9.204;2022-10-23T07:00:34;8.27;;;5.03;;
46487;SDS011;32202;48.780;9.204;2022-10-23T07:03:03;10.00;;;5.30;;
46487;SDS011;32202;48.780;9.204;2022-10-23T07:05:30;19.58;;;12.52;;
46487;SDS011;32202;48.780;9.204;2022-10-23T07:07:56;14.38;;;9.98;;
46487;SDS011;32202;48.780;9.204;2022-10-23T07:10:22;35.67;;;25.27;;
46487;SDS011;32202;48.780;9.204;2022-10-23T07:12:48;39.78;;;27.60;;
46487;SDS011;32202;48.780;9.204;2022-10-23T07:15:14;47.65;;;32.95;;
46487;SDS011;32202;48.780;9.204;2022-10-23T07:17:40;49.35;;;36.55;;
46487;SDS011;32202;48.780;9.204;2022-10-23T07:20:05;41.88;;;28.83;;
46487;SDS011;32202;48.780;9.204;2022-10-23T07:22:31;15.10;;;9.48;;
46487;SDS011;32202;48.780;9.204;2022-10-23T07:24:57;8.43;;;4.60;;
46487;SDS011;32202;48.780;9.204;2022-10-23T07:27:23;14.98;;;10.15;;
46487;SDS011;32202;48.780;9.204;2022-10-23T07:29:49;12.95;;;8.20;;
46487;SDS011;32202;48.780;9.204;2022-10-23T07:32:15;8.25;;;4.35;;
46487;SDS011;32202;48.780;9.204;2022-10-23T07:34:41;12.27;;;7.57;;
46487;SDS011;32202;48.780;9.204;2022-10-23T07:37:07;11.32;;;5.28;;
46487;SDS011;32202;48.780;9.204;2022-10-23T07:39:33;8.32;;;3.95;;
46487;SDS011;32202;48.780;9.204;2022-10-23T07:41:58;20.92;;;13.32;;
46487;SDS011;32202;48.780;9.204;2022-10-23T07:44:24;28.90;;;21.08;;
46487;SDS011;32202;48.780;9.204;2022-10-23T07:46:50;25.52;;;15.75;;
46487;SDS011;32202;48.780;9.204;2022-10-23T07:49:18;9.25;;;6.05;;
46487;SDS011;32202;48.780;9.204;2022-10-23T07:51:44;23.95;;;17.08;;
46487;SDS011;32202;48.780;9.204;2022-10-23T07:54:10;10.00;;;4.65;;
46487;SDS011;32202;48.780;9.204;2022-10-23T07:56:36;12.50;;;7.72;;
46487;SDS011;32202;48.780;9.204;2022-10-23T07:59:02;22.52;;;15.70;;
46487;SDS011;32202;48.780;9.204;2022-10-23T08:01:32;11.73;;;7.18;;
46487;SDS011;32202;48.780;9.204;2022-10-23T08:04:00;10.38;;;5.35;;
46487;SDS011;32202;48.780;9.204;2022-10-23T08:06:26;10.02;;;5.43;;
46487;SDS011;32202;48.780;9.204;2022-10-23T08:08:52;20.90;;;14.25;;
46487;SDS011;32202;48.780;9.204;2022-10-23T08:11:19;7.97;;;4.03;;
46487;SDS011;32202;48.780;9.204;2022-10-23T08:13:51;18.45;;;12.85;;
46487;SDS011;32202;48.780;9.204;2022-10-23T08:16:18;19.23;;;15.88;;
46487;SDS011;32202;48.780;9.204;2022-10-23T08:18:44;14.40;;;11.55;;
46487;SDS011;32202;48.780;9.204;2022-10-23T08:21:10;8.45;;;4.30;;
46487;SDS011;32202;48.780;9.204;2022-10-23T08:23:36;7.13;;;3.38;;
46487;SDS011;32202;48.780;9.204;2022-10-23T08:26:02;9.52;;;5.00;;
46487;SDS011;32202;48.780;9.204;2022-10-23T08:28:30;6.90;;;3.70;;
46487;SDS011;32202;48.780;9.204;2022-10-23T08:30:56;7.47;;;3.20;;
46487;SDS011;32202;48.780;9.204;2022-10-23T08:33:22;4.15;;;2.42;;
46487;SDS011;32202;48.780;9.204;2022-10-23T08:35:48;7.22;;;3.20;;
46487;SDS011;32202;48.780;9.204;2022-10-23T08:38:14;4.60;;;2.90;;
46487;SDS011;32202;48.780;9.204;2022-10-23T08:40:44;5.00;;;2.65;;
46487;SDS011;32202;48.780;9.204;2022-10-23T08:43:17;8.27;;;3.72;;
46487;SDS011;32202;48.780;9.204;2022-10-23T08:46:06;9.30;;;4.35;;
46487;SDS011;32202;48.780;9.204;2022-10-23T08:48:38;5.70;;;3.10;;
46487;SDS011;32202;48.780;9.204;2022-10-23T08:53:40;12.27;;;7.78;;
46487;SDS011;32202;48.780;9.204;2022-10-23T08:56:31;27.15;;;16.45;;
46487;SDS011;32202;48.780;9.204;2022-10-23T08:58:58;11.75;;;8.13;;
46487;SDS011;32202;48.780;9.204;2022-10-23T09:04:11;88.60;;;60.05;;
46487;SDS011;32202;48.780;9.204;2022-10-23T09:16:59;6.47;;;2.58;;
46487;SDS011;32202;48.780;9.204;2022-10-23T09:19:39;8.13;;;4.18;;
46487;SDS011;32202;48.780;9.204;2022-10-23T09:22:05;4.72;;;1.80;;
46487;SDS011;32202;48.780;9.204;2022-10-23T09:24:30;5.80;;;4.28;;
46487;SDS011;32202;48.780;9.204;2022-10-23T09:26:57;3.58;;;2.20;;
46487;SDS011;32202;48.780;9.204;2022-10-23T09:29:33;3.13;;;2.25;;
46487;SDS011;32202;48.780;9.204;2022-10-23T09:32:03;3.40;;;2.35;;
46487;SDS011;32202;48.780;9.204;2022-10-23T09:34:31;3.08;;;2.50;;
46487;SDS011;32202;48.780;9.204;2022-10-23T09:37:19;4.00;;;1.98;;
46487;SDS011;32202;48.780;9.204;2022-10-23T09:40:00;4.45;;;2.15;;
46487;SDS011;32202;48.780;9.204;2022-10-23T09:42:54;4.35;;;2.38;;
46487;SDS011;32202;48.780;9.204;2022-10-23T09:45:29;6.85;;;3.35;;
46487;SDS011;32202;48.780;9.204;2022-10-23T09:50:34;3.97;;;1.77;;
46487;SDS011;32202;48.780;9.204;2022-10-23T09:53:00;4.00;;;1.48;;
46487;SDS011;32202;48.780;9.204;2022-10-23T09:55:25;3.58;;;1.70;;
46487;SDS011;32202;48.780;9.204;2022-10-23T09:57:52;2.75;;;1.90;;
46487;SDS011;32202;48.780;9.204;2022-10-23T10:00:20;7.95;;;3.80;;
46487;SDS011;32202;48.780;9.204;2022-10-23T10:02:58;8.13;;;7.15;;
46487;SDS011;32202;48.780;9.204;2022-10-23T10:05:36;3.58;;;2.00;;
46487;SDS011;32202;48.780;9.204;2022-10-23T10:11:09;3.78;;;2.67;;
46487;SDS011;32202;48.780;9.204;2022-10-23T10:16:39;4.35;;;2.25;;
46487;SDS011;32202;48.780;9.204;2022-10-23T10:22:00;5.63;;;2.10;;
46487;SDS011;32202;48.780;9.204;2022-10-23T10:24:38;4.72;;;2.50;;
46487;SDS011;32202;48.780;9.204;2022-10-23T10:30:15;3.55;;;2.00;;
46487;SDS011;32202;48.780;9.204;2022-10-23T10:32:45;13.57;;;9.35;;
46487;SDS011;32202;48.780;9.204;2022-10-23T10:40:34;3.85;;;1.83;;
46487;SDS011;32202;48.780;9.204;2022-10-23T10:45:48;23.42;;;19.00;;
46487;SDS011;32202;48.780;9.204;2022-10-23T10:49:03;7.57;;;3.83;;
46487;SDS011;32202;48.780;9.204;2022-10-23T10:51:33;6.78;;;4.13;;
46487;SDS011;32202;48.780;9.204;2022-10-23T10:56:42;8.90;;;5.97;;
46487;SDS011;32202;48.780;9.204;2022-10-23T10:59:11;67.03;;;53.03;;
46487;SDS011;32202;48.780;9.204;2022-10-23T11:01:42;6.25;;;4.22;;
46487;SDS011;32202;48.780;9.204;2022-10-23T11:06:55;6.15;;;2.47;;
46487;SDS011;32202;48.780;9.204;2022-10-23T11:09:28;3.33;;;2.28;;
46487;SDS011;32202;48.780;9.204;2022-10-23T11:11:55;103.13;;;78.38;;
46487;SDS011;32202;48.780;9.204;2022-10-23T11:14:22;11.32;;;6.10;;
46487;SDS011;32202;48.780;9.204;2022-10-23T11:19:31;5.43;;;2.33;;
46487;SDS011;32202;48.780;9.204;2022-10-23T11:22:27;7.47;;;2.50;;
46487;SDS011;32202;48.780;9.204;2022-10-23T11:28:10;4.65;;;3.40;;
46487;SDS011;32202;48.780;9.204;2022-10-23T11:33:43;6.90;;;4.35;;
46487;SDS011;32202;48.780;9.204;2022-10-23T11:36:19;16.38;;;8.80;;
46487;SDS011;32202;48.780;9.204;2022-10-23T11:39:26;7.25;;;4.78;;
46487;SDS011;32202;48.780;9.204;2022-10-23T11:42:14;6.55;;;3.47;;
46487;SDS011;32202;48.780;9.204;2022-10-23T11:44:52;6.78;;;3.72;;
46487;SDS011;32202;48.780;9.204;2022-10-23T11:52:31;6.38;;;4.13;;
46487;SDS011;32202;48.780;9.204;2022-10-23T11:55:01;4.50;;;3.00;;
46487;SDS011;32202;48.780;9.204;2022-10-23T11:57:28;4.38;;;2.70;;
46487;SDS011;32202;48.780;9.204;2022-10-23T11:59:54;11.35;;;6.85;;
46487;SDS011;32202;48.780;9.204;2022-10-23T12:04:52;11.70;;;3.10;;
46487;SDS011;32202;48.780;9.204;2022-10-23T12:07:38;23.42;;;12.80;;
46487;SDS011;32202;48.780;9.204;2022-10-23T12:12:55;5.13;;;3.65;;
46487;SDS011;32202;48.780;9.204;2022-10-23T12:15:23;3.42;;;2.28;;
46487;SDS011;32202;48.780;9.204;2022-10-23T12:17:50;5.25;;;3.03;;
46487;SDS011;32202;48.780;9.204;2022-10-23T12:20:26;4.63;;;2.28;;
46487;SDS011;32202;48.780;9.204;2022-10-23T12:30:57;4.47;;;2.58;;
46487;SDS011;32202;48.780;9.204;2022-10-23T12:38:47;35.63;;;22.52;;
46487;SDS011;32202;48.780;9.204;2022-10-23T12:43:50;5.30;;;2.70;;
46487;SDS011;32202;48.780;9.204;2022-10-23T12:46:32;4.55;;;2.10;;
46487;SDS011;32202;48.780;9.204;2022-10-23T12:49:15;4.20;;;2.40;;
46487;SDS011;32202;48.780;9.204;2022-10-23T12:51:53;7.72;;;4.35;;
46487;SDS011;32202;48.780;9.204;2022-10-23T12:54:29;44.65;;;29.08;;
46487;SDS011;32202;48.780;9.204;2022-10-23T12:56:56;6.03;;;3.87;;
46487;SDS011;32202;48.780;9.204;2022-10-23T12:59:25;20.88;;;12.55;;
46487;SDS011;32202;48.780;9.204;2022-10-23T13:01:57;3.72;;;2.50;;
46487;SDS011;32202;48.780;9.204;2022-10-23T13:07:00;9.70;;;4.43;;
46487;SDS011;32202;48.780;9.204;2022-10-23T13:12:01;3.22;;;2.05;;
46487;SDS011;32202;48.780;9.204;2022-10-23T13:16:58;4.50;;;2.47;;
46487;SDS011;32202;48.780;9.204;2022-10-23T13:19:25;9.57;;;2.30;;
46487;SDS011;32202;48.780;9.204;2022-10-23T13:21:51;6.53;;;2.42;;
46487;SDS011;32202;48.780;9.204;2022-10-23T13:24:20;5.45;;;2.70;;
46487;SDS011;32202;48.780;9.204;2022-10-23T13:26:48;5.28;;;3.10;;
46487;SDS011;32202;48.780;9.204;2022-10-23T13:29:18;3.22;;;2.15;;
46487;SDS011;32202;48.780;9.204;2022-10-23T13:31:44;2.65;;;2.03;;
46487;SDS011;32202;48.780;9.204;2022-10-23T13:34:16;3.70;;;1.98;;
46487;SDS011;32202;48.780;9.204;2022-10-23T13:37:37;14.10;;;8.25;;
46487;SDS011;32202;48.780;9.204;2022-10-23T13:40:00;7.07;;;5.25;;
46487;SDS011;32202;48.780;9.204;2022-10-23T13:42:33;10.45;;;4.57;;
46487;SDS011;32202;48.780;9.204;2022-10-23T13:44:59;11.45;;;8.02;;
46487;SDS011;32202;48.780;9.204;2022-10-23T13:47:25;15.32;;;8.00;;
46487;SDS011;32202;48.780;9.204;2022-10-23T13:49:51;90.65;;;63.70;;
46487;SDS011;32202;48.780;9.204;2022-10-23T13:52:18;116.10;;;79.45;;
46487;SDS011;32202;48.780;9.204;2022-10-23T13:54:46;18.63;;;11.40;;
46487;SDS011;32202;48.780;9.204;2022-10-23T13:57:12;13.40;;;9.13;;
46487;SDS011;32202;48.780;9.204;2022-10-23T13:59:39;14.93;;;8.32;;
46487;SDS011;32202;48.780;9.204;2022-10-23T14:02:12;39.13;;;25.63;;
46487;SDS011;32202;48.780;9.204;2022-10-23T14:04:44;111.68;;;69.95;;
46487;SDS011;32202;48.780;9.204;2022-10-23T14:07:11;19.88;;;12.50;;
46487;SDS011;32202;48.780;9.204;2022-10-23T14:09:37;25.90;;;14.85;;
46487;SDS011;32202;48.780;9.204;2022-10-23T14:12:02;27.75;;;15.88;;
46487;SDS011;32202;48.780;9.204;2022-10-23T14:14:28;6.80;;;3.50;;
46487;SDS011;32202;48.780;9.204;2022-10-23T14:16:54;11.18;;;6.70;;
46487;SDS011;32202;48.780;9.204;2022-10-23T14:19:20;11.68;;;4.93;;
46487;SDS011;32202;48.780;9.204;2022-10-23T14:21:45;5.88;;;3.67;;
46487;SDS011;32202;48.780;9.204;2022-10-23T14:24:11;6.93;;;3.50;;
46487;SDS011;32202;48.780;9.204;2022-10-23T14:26:36;7.68;;;2.90;;
46487;SDS011;32202;48.780;9.204;2022-10-23T14:29:02;27.95;;;19.83;;
46487;SDS011;32202;48.780;9.204;2022-10-23T14:31:30;53.65;;;37.63;;
46487;SDS011;32202;48.780;9.204;2022-10-23T14:33:57;20.40;;;11.82;;
46487;SDS011;32202;48.780;9.204;2022-10-23T14:36:24;10.57;;;5.60;;
46487;SDS011;32202;48.780;9.204;2022-10-23T14:38:57;10.32;;;4.05;;
46487;SDS011;32202;48.780;9.204;2022-10-23T14:41:23;20.23;;;11.00;;
46487;SDS011;32202;48.780;9.204;2022-10-23T14:43:50;16.33;;;9.18;;
46487;SDS011;32202;48.780;9.204;2022-10-23T14:46:16;7.18;;;3.90;;
46487;SDS011;32202;48.780;9.204;2022-10-23T14:48:43;10.57;;;3.72;;
46487;SDS011;32202;48.780;9.204;2022-10-23T14:51:16;7.55;;;3.58;;
46487;SDS011;32202;48.780;9.204;2022-10-23T14:53:44;8.23;;;4.47;;
46487;SDS011;32202;48.780;9.204;2022-10-23T14:56:11;9.63;;;4.55;;
46487;SDS011;32202;48.780;9.204;2022-10-23T14:58:36;8.15;;;4.30;;
46487;SDS011;32202;48.780;9.204;2022-10-23T15:01:02;8.48;;;4.72;;
46487;SDS011;32202;48.780;9.204;2022-10-23T15:03:28;8.73;;;4.93;;
46487;SDS011;32202;48.780;9.204;2022-10-23T15:05:53;10.27;;;6.72;;
46487;SDS011;32202;48.780;9.204;2022-10-23T15:08:20;15.43;;;10.25;;
46487;SDS011;32202;48.780;9.204;2022-10-23T15:10:47;11.02;;;5.43;;
46487;SDS011;32202;48.780;9.204;2022-10-23T15:13:13;8.63;;;4.57;;
46487;SDS011;32202;48.780;9.204;2022-10-23T15:15:38;6.35;;;4.22;;
46487;SDS011;32202;48.780;9.204;2022-10-23T15:18:04;11.80;;;4.70;;
46487;SDS011;32202;48.780;9.204;2022-10-23T15:20:30;7.63;;;4.07;;
46487;SDS011;32202;48.780;9.204;2022-10-23T15:22:55;9.55;;;4.15;;
46487;SDS011;32202;48.780;9.204;2022-10-23T15:25:21;8.70;;;4.07;;
46487;SDS011;32202;48.780;9.204;2022-10-23T15:27:47;7.18;;;4.65;;
46487;SDS011;32202;48.780;9.204;2022-10-23T15:30:13;13.93;;;4.35;;
46487;SDS011;32202;48.780;9.204;2022-10-23T15:32:38;11.57;;;5.82;;
46487;SDS011;32202;48.780;9.204;2022-10-23T15:35:05;31.98;;;18.63;;
46487;SDS011;32202;48.780;9.204;2022-10-23T15:37:30;104.18;;;61.05;;
46487;SDS011;32202;48.780;9.204;2022-10-23T15:39:56;42.13;;;24.60;;
46487;SDS011;32202;48.780;9.204;2022-10-23T15:42:22;25.85;;;15.68;;
46487;SDS011;32202;48.780;9.204;2022-10-23T15:44:47;15.88;;;10.38;;
46487;SDS011;32202;48.780;9.204;2022-10-23T15:47:13;16.45;;;10.25;;
46487;SDS011;32202;48.780;9.204;2022-10-23T15:49:39;10.98;;;6.05;;
46487;SDS011;32202;48.780;9.204;2022-10-23T15:52:05;8.93;;;5.47;;
46487;SDS011;32202;48.780;9.204;2022-10-23T15:54:33;8.15;;;5.25;;
46487;SDS011;32202;48.780;9.204;2022-10-23T15:56:59;10.65;;;5.72;;
46487;SDS011;32202;48.780;9.204;2022-10-23T15:59:29;12.68;;;5.22;;
46487;SDS011;32202;48.780;9.204;2022-10-23T16:01:56;9.63;;;4.35;;
46487;SDS011;32202;48.780;9.204;2022-10-23T16:04:21;11.55;;;6.57;;
46487;SDS011;32202;48.780;9.204;2022-10-23T16:06:47;8.32;;;4.70;;
46487;SDS011;32202;48.780;9.204;2022-10-23T16:09:14;5.97;;;3.88;;
46487;SDS011;32202;48.780;9.204;2022-10-23T16:11:41;11.27;;;4.38;;
46487;SDS011;32202;48.780;9.204;2022-10-23T16:14:09;8.07;;;3.72;;
46487;SDS011;32202;48.780;9.204;2022-10-23T16:16:37;10.57;;;4.50;;
46487;SDS011;32202;48.780;9.204;2022-10-23T16:19:03;18.23;;;8.80;;
46487;SDS011;32202;48.780;9.204;2022-10-23T16:21:30;90.68;;;53.22;;
46487;SDS011;32202;48.780;9.204;2022-10-23T16:23:58;36.22;;;22.73;;
46487;SDS011;32202;48.780;9.204;2022-10-23T16:26:25;166.05;;;101.63;;
46487;SDS011;32202;48.780;9.204;2022-10-23T16:28:53;196.23;;;119.45;;
46487;SDS011;32202;48.780;9.204;2022-10-23T16:31:20;285.02;;;172.27;;
46487;SDS011;32202;48.780;9.204;2022-10-23T16:33:47;266.88;;;159.13;;
46487;SDS011;32202;48.780;9.204;2022-10-23T16:36:13;36.65;;;21.70;;
46487;SDS011;32202;48.780;9.204;2022-10-23T16:38:39;13.90;;;7.10;;
46487;SDS011;32202;48.780;9.204;2022-10-23T16:41:05;14.07;;;8.00;;
46487;SDS011;32202;48.780;9.204;2022-10-23T16:43:30;20.55;;;12.07;;
46487;SDS011;32202;48.780;9.204;2022-10-23T16:46:00;11.07;;;6.05;;
46487;SDS011;32202;48.780;9.204;2022-10-23T16:48:28;10.48;;;5.47;;